Time;durP1;ratioP1;P1;durP2;ratioP2;P2;SDS_P1;SDS_P2;PMS_P1;PMS_P2;Temp;Humidity;BMP_temperature;BMP_pressure;BME280_temperature;BME280_humidity;BME280_pressure;Samples;Min_cycle;Max_cycle;Signal;HPM_P1;HPM_P2
2021/03/16 00:02:33;;;;;;;14.20;10.93;;;;;;;1.13;87.13;96451.34;4995648;28;20053;-71
2021/03/16 00:05:00;;;;;;;15.80;11.95;;;;;;;1.28;86.22;96463.00;5004972;28;20560;-71
2021/03/16 00:07:28;;;;;;;11.13;9.23;;;;;;;1.28;85.51;96459.63;5006888;28;20049;-72
2021/03/16 00:09:55;;;;;;;17.13;12.63;;;;;;;1.27;86.49;96458.81;5004597;28;20125;-71
2021/03/16 00:12:21;;;;;;;15.27;11.07;;;;;;;0.98;87.23;96461.78;4992168;28;20046;-71
2021/03/16 00:14:47;;;;;;;18.77;12.55;;;;;;;1.10;86.41;96461.81;5004718;28;20057;-71
2021/03/16 00:17:13;;;;;;;14.80;10.57;;;;;;;1.11;86.47;96463.44;5008614;28;20042;-71
2021/03/16 00:19:39;;;;;;;17.90;11.38;;;;;;;1.18;86.09;96460.28;5008510;28;20136;-72
2021/03/16 00:22:06;;;;;;;18.05;12.25;;;;;;;1.12;86.59;96467.63;5003353;28;20041;-71
2021/03/16 00:24:32;;;;;;;20.35;13.13;;;;;;;1.07;86.72;96464.59;5010483;28;20057;-71
2021/03/16 00:26:58;;;;;;;19.30;12.48;;;;;;;1.17;86.65;96468.13;5004790;28;20382;-71
2021/03/16 00:29:24;;;;;;;18.42;11.43;;;;;;;1.24;86.23;96469.28;5011943;28;20045;-71
2021/03/16 00:31:51;;;;;;;16.50;12.40;;;;;;;1.17;86.43;96468.94;5010526;28;20042;-71
2021/03/16 00:34:17;;;;;;;19.75;12.60;;;;;;;1.10;86.04;96465.22;5008135;28;20069;-71
2021/03/16 00:36:43;;;;;;;15.60;11.30;;;;;;;1.18;86.38;96470.53;5010627;28;20058;-71
2021/03/16 00:39:09;;;;;;;14.40;11.77;;;;;;;1.16;86.00;96466.47;5010957;28;20042;-71
2021/03/16 00:41:35;;;;;;;19.10;12.43;;;;;;;1.27;85.77;96476.75;5011668;28;20045;-71
2021/03/16 00:44:03;;;;;;;18.48;13.05;;;;;;;1.14;86.36;96464.03;5011627;28;20053;-71
2021/03/16 00:46:32;;;;;;;24.98;14.88;;;;;;;1.14;86.78;96470.91;4995442;28;20478;-71
2021/03/16 00:48:59;;;;;;;;;;;;;;;1.19;86.30;96476.53;5009696;28;20554;-71
2021/03/16 00:51:25;;;;;;;21.02;13.40;;;;;;;1.26;85.99;96471.75;5012569;28;19922;-71
2021/03/16 00:53:51;;;;;;;21.08;13.70;;;;;;;1.19;85.79;96472.19;4995932;28;20042;-71
2021/03/16 00:56:17;;;;;;;20.85;14.10;;;;;;;1.25;86.07;96476.06;4995497;28;20392;-71
2021/03/16 00:58:43;;;;;;;20.95;14.27;;;;;;;1.23;86.54;96470.22;5011180;28;20064;-72
2021/03/16 01:01:10;;;;;;;21.27;14.82;;;;;;;1.14;86.13;96468.34;5010669;28;20045;-71
2021/03/16 01:03:36;;;;;;;19.50;14.00;;;;;;;1.17;86.07;96480.94;5012741;28;20050;-70
2021/03/16 01:06:03;;;;;;;21.27;14.38;;;;;;;1.26;85.91;96482.81;5007953;28;20046;-71
2021/03/16 01:08:30;;;;;;;21.38;13.73;;;;;;;1.14;86.25;96479.44;5014709;28;20038;-72
2021/03/16 01:10:56;;;;;;;17.40;13.25;;;;;;;1.20;85.45;96494.31;4999367;28;20048;-71
2021/03/16 01:13:23;;;;;;;20.98;13.85;;;;;;;1.33;84.86;96489.09;5008557;28;20045;-71
2021/03/16 01:15:50;;;;;;;16.93;12.97;;;;;;;1.33;85.05;96478.84;5011071;28;20054;-72
2021/03/16 01:18:17;;;;;;;19.23;13.77;;;;;;;1.29;86.01;96492.84;5008563;28;20060;-71
2021/03/16 01:20:45;;;;;;;19.10;13.48;;;;;;;1.34;84.94;96503.56;5009522;28;20046;-71
2021/03/16 01:23:11;;;;;;;16.33;12.80;;;;;;;1.34;85.04;96500.19;4993042;28;20806;-72
2021/03/16 01:25:54;;;;;;;20.08;14.27;;;;;;;1.27;84.77;96506.69;5011371;28;20037;-71
2021/03/16 01:28:20;;;;;;;18.00;12.88;;;;;;;1.36;84.97;96493.19;4994649;28;20078;-71
2021/03/16 01:30:46;;;;;;;17.48;12.80;;;;;;;1.29;85.05;96503.09;5007104;28;20050;-71
2021/03/16 01:33:13;;;;;;;19.30;13.18;;;;;;;1.31;85.13;96496.13;5012641;28;20056;-71
2021/03/16 01:35:39;;;;;;;20.60;13.73;;;;;;;1.26;85.20;96489.69;5007162;28;20116;-71
2021/03/16 01:38:06;;;;;;;25.10;14.88;;;;;;;1.17;85.32;96498.88;5005357;28;20107;-71
2021/03/16 01:40:37;;;;;;;23.05;15.00;;;;;;;1.10;85.91;96507.94;5007552;28;20043;-71
2021/03/16 01:43:19;;;;;;;18.38;13.65;;;;;;;1.21;85.11;96505.44;5007334;28;20042;-71
2021/03/16 01:45:47;;;;;;;24.33;15.60;;;;;;;1.06;85.29;96494.56;5009453;28;20042;-71
2021/03/16 01:48:18;;;;;;;19.23;13.60;;;;;;;1.15;85.09;96505.88;5002827;28;20050;-71
2021/03/16 01:50:44;;;;;;;19.58;14.60;;;;;;;1.01;85.72;96500.00;5005955;28;20057;-70
2021/03/16 01:53:10;;;;;;;25.95;15.82;;;;;;;0.93;86.07;96502.34;5006028;28;20057;-71
2021/03/16 01:55:37;;;;;;;24.15;17.02;;;;;;;0.94;86.79;96500.59;5003663;28;20054;-71
2021/03/16 01:58:03;;;;;;;23.60;16.50;;;;;;;0.98;85.76;96500.25;5006124;28;20046;-71
2021/03/16 02:00:48;;;;;;;19.75;14.80;;;;;;;1.26;85.11;96518.72;5006952;28;20183;-71
2021/03/16 02:03:33;;;;;;;22.88;15.40;;;;;;;1.17;85.67;96515.09;5004209;28;20602;-71
2021/03/16 02:07:04;;;;;;;26.55;16.50;;;;;;;1.24;85.61;96518.00;5007113;28;20509;-71
2021/03/16 02:09:51;;;;;;;21.65;14.30;;;;;;;1.21;85.57;96516.50;5010568;28;20139;-71
2021/03/16 02:12:46;;;;;;;25.95;15.90;;;;;;;1.21;85.24;96516.50;5008873;28;20168;-71
2021/03/16 02:15:36;;;;;;;20.70;14.32;;;;;;;1.26;85.26;96518.72;5007096;28;20048;-71
2021/03/16 02:18:23;;;;;;;21.90;15.05;;;;;;;1.24;85.24;96525.69;5009190;28;20065;-71
2021/03/16 02:21:26;;;;;;;25.00;14.65;;;;;;;1.26;84.99;96513.56;5006127;28;20128;-72
2021/03/16 02:24:24;;;;;;;21.02;13.85;;;;;;;1.43;84.76;96520.81;5007622;28;20759;-71
2021/03/16 02:27:22;;;;;;;26.35;14.02;;;;;;;1.25;84.82;96531.63;5013352;28;20438;-71
2021/03/16 02:30:08;;;;;;;18.77;13.68;;;;;;;1.42;84.73;96528.66;5009221;28;20702;-74
2021/03/16 02:32:55;;;;;;;22.13;13.82;;;;;;;1.34;85.15;96531.78;5007160;28;20169;-71
2021/03/16 02:35:44;;;;;;;28.33;16.90;;;;;;;1.47;85.62;96541.13;5011322;28;20045;-71
2021/03/16 02:38:32;;;;;;;21.88;15.23;;;;;;;1.50;85.06;96536.56;4996610;28;20048;-71
2021/03/16 02:41:20;;;;;;;27.48;16.55;;;;;;;1.32;85.04;96543.91;5005393;28;20128;-71
2021/03/16 02:44:05;;;;;;;22.42;14.35;;;;;;;1.30;85.67;96553.44;5012797;28;20053;-71
2021/03/16 02:46:50;;;;;;;24.75;16.05;;;;;;;1.31;86.29;96552.53;5004958;28;20315;-71
2021/03/16 02:49:38;;;;;;;30.80;19.00;;;;;;;1.20;86.84;96555.88;5005915;28;20417;-71
2021/03/16 02:52:23;;;;;;;27.30;15.05;;;;;;;1.26;85.60;96546.91;5005238;28;20052;-72
2021/03/16 02:55:09;;;;;;;19.83;14.55;;;;;;;1.25;85.95;96554.72;5007274;28;20063;-71
2021/03/16 02:57:56;;;;;;;21.75;15.93;;;;;;;1.15;86.89;96557.16;5004137;28;20069;-71
2021/03/16 03:00:42;;;;;;;24.98;17.17;;;;;;;1.17;86.86;96556.09;5007571;28;20060;-71
2021/03/16 03:03:29;;;;;;;31.08;16.15;;;;;;;1.41;85.62;96556.03;5007098;28;20603;-71
2021/03/16 03:06:16;;;;;;;23.83;15.32;;;;;;;1.39;86.79;96560.44;5009045;28;20064;-71
2021/03/16 03:09:02;;;;;;;21.65;14.27;;;;;;;1.54;85.90;96560.25;5006999;28;20222;-72
2021/03/16 03:11:47;;;;;;;23.25;14.18;;;;;;;1.46;86.74;96557.44;5005676;28;20645;-71
2021/03/16 03:14:33;;;;;;;19.00;12.48;;;;;;;1.49;85.55;96549.53;5007694;28;20052;-71
2021/03/16 03:17:17;;;;;;;24.10;14.13;;;;;;;1.49;86.40;96564.91;5008157;28;20155;-70
2021/03/16 03:20:06;;;;;;;30.33;14.77;;;;;;;1.46;86.66;96570.25;5006265;28;20053;-71
2021/03/16 03:23:16;;;;;;;21.35;14.63;;;;;;;1.37;86.67;96572.56;5008814;28;20073;-71
2021/03/16 03:26:04;;;;;;;20.38;11.98;;;;;;;1.26;86.16;96575.13;5009694;28;20409;-71
2021/03/16 03:28:49;;;;;;;23.73;12.65;;;;;;;1.42;86.25;96580.75;5007946;28;20121;-72
2021/03/16 03:31:35;;;;;;;23.55;11.02;;;;;;;1.29;84.71;96572.34;5011507;28;20057;-71
2021/03/16 03:34:21;;;;;;;26.35;13.05;;;;;;;1.40;85.30;96581.81;5008133;28;20456;-71
2021/03/16 03:37:08;;;;;;;18.45;12.32;;;;;;;1.28;85.89;96588.66;5008684;28;20052;-71
2021/03/16 03:39:54;;;;;;;19.27;11.02;;;;;;;1.38;84.84;96584.47;5008253;28;20068;-71
2021/03/16 03:42:40;;;;;;;21.02;12.23;;;;;;;1.33;86.37;96580.63;5011832;28;20180;-71
2021/03/16 03:45:27;;;;;;;18.90;11.13;;;;;;;1.29;85.61;96586.91;5006800;28;20084;-71
2021/03/16 03:48:13;;;;;;;21.10;12.27;;;;;;;1.13;86.19;96587.22;5006430;28;20049;-70
2021/03/16 03:51:03;;;;;;;16.92;11.68;;;;;;;1.22;85.80;96591.66;5008650;28;21244;-71
2021/03/16 03:53:49;;;;;;;24.92;13.23;;;;;;;1.30;85.63;96601.38;5007090;28;20053;-72
2021/03/16 03:56:35;;;;;;;18.13;11.40;;;;;;;1.39;85.21;96601.50;5011157;28;20181;-71
2021/03/16 03:59:22;;;;;;;18.27;9.82;;;;;;;1.35;83.81;96607.78;5004743;28;20061;-71
2021/03/16 04:02:07;;;;;;;20.00;11.10;;;;;;;1.39;84.91;96605.81;5009236;28;20061;-70
2021/03/16 04:04:55;;;;;;;19.35;11.00;;;;;;;1.30;85.63;96607.31;5005935;28;20052;-71
2021/03/16 04:07:41;;;;;;;19.58;11.23;;;;;;;1.11;85.60;96609.59;5009396;28;20064;-70
2021/03/16 04:10:26;;;;;;;17.35;9.70;;;;;;;1.05;85.12;96617.72;5006214;28;20725;-72
2021/03/16 04:13:11;;;;;;;22.08;11.35;;;;;;;1.01;84.73;96610.22;5007220;28;20052;-71
2021/03/16 04:15:56;;;;;;;16.52;10.05;;;;;;;1.29;84.73;96615.94;5007624;28;20092;-71
2021/03/16 04:18:45;;;;;;;16.50;10.30;;;;;;;1.29;84.09;96620.25;5007391;28;20188;-71
2021/03/16 04:21:29;;;;;;;15.50;9.93;;;;;;;1.21;84.60;96620.81;5002735;28;20057;-71
2021/03/16 04:24:15;;;;;;;21.77;10.98;;;;;;;1.31;84.76;96637.19;4994610;28;20052;-71
2021/03/16 04:26:59;;;;;;;19.08;10.70;;;;;;;1.40;84.30;96636.50;5010290;28;20068;-71
2021/03/16 04:29:44;;;;;;;26.73;11.85;;;;;;;1.40;85.17;96638.25;4992967;28;20052;-71
2021/03/16 04:32:30;;;;;;;24.13;11.50;;;;;;;1.38;85.39;96640.91;5012792;28;20496;-71
2021/03/16 04:35:15;;;;;;;23.55;11.20;;;;;;;1.39;84.94;96645.09;5008031;28;20061;-71
2021/03/16 04:37:59;;;;;;;23.52;10.75;;;;;;;1.43;84.66;96643.13;5008422;28;20053;-71
2021/03/16 04:40:45;;;;;;;19.25;9.63;;;;;;;1.40;84.62;96639.06;5010035;28;20068;-71
2021/03/16 04:43:29;;;;;;;19.67;10.70;;;;;;;1.48;84.21;96641.03;5010824;28;20072;-71
2021/03/16 04:46:14;;;;;;;26.73;11.82;;;;;;;1.43;85.13;96653.41;5008557;28;20053;-72
2021/03/16 04:48:59;;;;;;;20.40;11.48;;;;;;;1.47;85.17;96661.69;4997230;28;20052;-72
2021/03/16 04:51:43;;;;;;;20.83;12.27;;;;;;;1.20;85.45;96652.50;5008248;28;20500;-71
2021/03/16 04:54:28;;;;;;;22.55;11.40;;;;;;;1.25;85.44;96658.13;5008847;28;20053;-72
2021/03/16 04:57:13;;;;;;;22.40;11.07;;;;;;;1.04;85.17;96650.25;5007041;28;20128;-72
2021/03/16 04:59:58;;;;;;;20.67;11.40;;;;;;;1.06;85.34;96644.97;5011861;28;20560;-73
2021/03/16 05:02:42;;;;;;;20.73;11.68;;;;;;;1.08;85.37;96648.25;5008907;28;20075;-71
2021/03/16 05:05:27;;;;;;;19.58;11.40;;;;;;;1.13;85.67;96654.69;5009390;28;20189;-71
2021/03/16 05:08:12;;;;;;;22.20;11.95;;;;;;;1.23;84.82;96652.28;5010262;28;20088;-71
2021/03/16 05:10:57;;;;;;;24.15;13.00;;;;;;;1.27;84.55;96652.88;5006199;28;20799;-71
2021/03/16 05:13:42;;;;;;;27.15;15.40;;;;;;;1.10;85.17;96664.34;5009045;28;20069;-73
2021/03/16 05:16:26;;;;;;;22.98;11.07;;;;;;;1.23;84.56;96652.28;5011560;28;20056;-71
2021/03/16 05:19:11;;;;;;;22.85;13.82;;;;;;;1.08;84.93;96668.75;5010169;28;20065;-71
2021/03/16 05:21:56;;;;;;;21.67;12.60;;;;;;;1.12;84.72;96668.47;5014078;28;20181;-72
2021/03/16 05:24:41;;;;;;;26.48;13.38;;;;;;;1.18;85.07;96667.19;5009968;28;20057;-72
2021/03/16 05:27:26;;;;;;;30.92;14.90;;;;;;;1.00;85.97;96672.69;4998619;28;20048;-72
2021/03/16 05:30:11;;;;;;;33.92;18.77;;;;;;;1.20;86.05;96684.09;5010145;28;20083;-71
2021/03/16 05:32:57;;;;;;;24.90;12.52;;;;;;;1.21;84.87;96687.50;5011280;28;20065;-70
2021/03/16 05:35:42;;;;;;;33.85;17.58;;;;;;;1.21;84.48;96687.50;5008351;28;20138;-70
2021/03/16 05:38:27;;;;;;;27.02;13.00;;;;;;;1.49;84.42;96688.06;5007407;28;20112;-69
2021/03/16 05:41:12;;;;;;;20.50;11.40;;;;;;;1.48;84.73;96705.19;5016145;28;20052;-70
2021/03/16 05:44:00;;;;;;;21.92;9.98;;;;;;;1.35;83.23;96723.19;5010300;28;20121;-72
2021/03/16 05:46:46;;;;;;;20.77;11.65;;;;;;;1.18;85.64;96731.28;5008296;28;20422;-72
2021/03/16 05:49:33;;;;;;;14.73;8.80;;;;;;;1.08;85.35;96736.25;4996617;28;20064;-71
2021/03/16 05:52:17;;;;;;;6.15;2.88;;;;;;;0.39;86.86;96736.69;5000074;28;20064;-72
2021/03/16 05:55:04;;;;;;;11.05;5.15;;;;;;;-0.56;89.98;96745.50;4998982;28;20127;-71
2021/03/16 05:57:50;;;;;;;6.95;4.15;;;;;;;0.03;90.22;96746.84;5008247;28;20049;-72
2021/03/16 06:00:35;;;;;;;15.90;7.50;;;;;;;-0.44;90.48;96749.84;5012154;28;20048;-72
2021/03/16 06:03:20;;;;;;;46.17;15.20;;;;;;;-0.44;90.77;96734.50;4997736;28;20053;-71
2021/03/16 06:06:08;;;;;;;15.77;7.38;;;;;;;-0.33;91.18;96733.78;5007955;28;20056;-70
2021/03/16 06:08:52;;;;;;;10.65;6.28;;;;;;;-0.14;90.86;96724.94;5012199;28;20101;-73
2021/03/16 06:11:51;;;;;;;8.18;4.72;;;;;;;-0.27;89.80;96743.63;5013112;28;20052;-73
2021/03/16 06:14:37;;;;;;;12.93;5.10;;;;;;;0.03;90.66;96737.44;5010036;28;20056;-71
2021/03/16 06:17:22;;;;;;;7.15;4.25;;;;;;;0.17;89.47;96739.06;5008869;28;20484;-72
2021/03/16 06:20:07;;;;;;;14.63;7.88;;;;;;;-0.07;90.19;96746.63;5006749;28;20065;-72
2021/03/16 06:23:09;;;;;;;9.77;6.32;;;;;;;0.07;89.18;96755.97;5007180;28;20061;-72
2021/03/16 06:25:54;;;;;;;9.30;5.88;;;;;;;0.07;88.26;96759.34;5009470;28;20072;-72
2021/03/16 06:28:39;;;;;;;14.68;7.72;;;;;;;0.04;87.77;96761.28;5009208;28;20103;-73
2021/03/16 06:31:24;;;;;;;37.97;18.20;;;;;;;0.33;88.81;96749.91;5009284;28;20076;-72
2021/03/16 06:34:23;;;;;;;19.27;9.98;;;;;;;0.36;86.75;96759.97;4995655;28;20053;-72
2021/03/16 06:37:17;;;;;;;16.52;9.75;;;;;;;0.59;85.37;96760.97;5006972;28;20064;-71
2021/03/16 06:40:02;;;;;;;26.42;13.15;;;;;;;0.79;86.71;96756.22;5006501;28;20154;-71
2021/03/16 06:42:47;;;;;;;22.45;11.95;;;;;;;0.86;86.00;96765.13;5002123;28;20056;-71
2021/03/16 06:45:34;;;;;;;21.80;11.18;;;;;;;0.94;85.44;96770.53;5008201;28;20069;-71
2021/03/16 06:48:25;;;;;;;24.15;11.50;;;;;;;0.94;84.37;96769.72;4988084;28;20053;-71
2021/03/16 06:51:14;;;;;;;22.60;12.50;;;;;;;1.31;84.25;96780.81;4992841;28;20160;-71
2021/03/16 06:54:15;;;;;;;25.63;13.20;;;;;;;1.18;83.57;96792.81;5007958;28;20052;-71
2021/03/16 06:57:01;;;;;;;22.30;10.77;;;;;;;1.48;83.41;96792.41;4993467;28;20060;-71
2021/03/16 06:59:45;;;;;;;29.50;15.40;;;;;;;1.61;82.91;96797.50;4994397;28;20424;-71
2021/03/16 07:02:30;;;;;;;28.27;14.23;;;;;;;1.21;83.06;96793.44;5007939;28;20064;-71
2021/03/16 07:05:29;;;;;;;28.08;12.70;;;;;;;1.78;81.55;96801.44;5007625;28;20164;-71
2021/03/16 07:08:14;;;;;;;25.45;12.30;;;;;;;1.59;82.37;96813.00;5006760;28;20056;-71
2021/03/16 07:11:02;;;;;;;40.13;18.83;;;;;;;1.60;83.03;96813.81;5007640;28;20089;-71
2021/03/16 07:13:48;;;;;;;54.40;21.83;;;;;;;1.83;81.92;96818.13;5006647;28;20056;-72
2021/03/16 07:16:36;;;;;;;65.35;26.02;;;;;;;2.20;81.15;96810.31;5008163;28;20453;-72
2021/03/16 07:19:23;;;;;;;53.40;21.42;;;;;;;2.65;79.82;96830.13;5007132;28;20057;-72
2021/03/16 07:22:16;;;;;;;57.17;25.17;;;;;;;2.14;81.14;96833.88;5005553;28;20061;-72
2021/03/16 07:25:04;;;;;;;32.13;15.63;;;;;;;3.09;78.81;96837.97;5007524;28;20637;-72
2021/03/16 07:27:51;;;;;;;20.42;10.52;;;;;;;3.71;75.59;96849.47;5007047;28;20139;-72
2021/03/16 07:30:50;;;;;;;42.17;18.73;;;;;;;3.09;76.34;96853.41;5007314;28;20678;-73
2021/03/16 07:33:37;;;;;;;23.65;10.63;;;;;;;2.78;77.12;96855.72;4992755;28;20082;-70
2021/03/16 07:36:22;;;;;;;27.95;10.93;;;;;;;3.00;78.26;96860.88;5009322;28;20066;-73
2021/03/16 07:39:09;;;;;;;24.20;12.70;;;;;;;2.24;79.80;96855.41;5004799;28;20056;-72
2021/03/16 07:41:55;;;;;;;15.00;8.50;;;;;;;2.97;77.81;96860.31;5009336;28;20061;-72
2021/03/16 07:44:42;;;;;;;15.95;9.30;;;;;;;2.67;78.76;96860.84;5008403;28;20113;-72
2021/03/16 07:47:35;;;;;;;19.92;12.10;;;;;;;2.13;80.27;96868.19;5007738;28;20056;-72
2021/03/16 07:50:31;;;;;;;18.08;9.88;;;;;;;2.36;79.54;96865.69;5008618;28;20077;-72
2021/03/16 07:53:23;;;;;;;17.20;10.25;;;;;;;2.74;78.56;96872.31;5009484;28;20132;-72
2021/03/16 07:56:12;;;;;;;18.10;10.80;;;;;;;2.85;77.37;96869.75;5006830;28;20125;-72
2021/03/16 07:58:57;;;;;;;19.42;10.38;;;;;;;3.08;78.11;96870.59;5003016;28;20060;-72
2021/03/16 08:01:47;;;;;;;16.80;9.23;;;;;;;3.21;75.21;96873.84;5008321;28;20052;-72
2021/03/16 08:04:39;;;;;;;20.80;9.77;;;;;;;3.28;75.35;96876.78;5008849;28;20064;-72
2021/03/16 08:07:28;;;;;;;17.67;9.48;;;;;;;3.84;75.65;96884.41;5008722;28;20720;-72
2021/03/16 08:10:25;;;;;;;17.00;8.00;;;;;;;3.17;76.77;96881.94;5009074;28;20100;-73
2021/03/16 08:13:16;;;;;;;17.33;8.15;;;;;;;2.62;76.34;96874.88;4994217;28;20512;-73
2021/03/16 08:16:12;;;;;;;15.57;7.93;;;;;;;2.75;77.77;96889.38;5003288;28;20068;-72
2021/03/16 08:19:27;;;;;;;16.65;6.55;;;;;;;3.97;74.55;96891.97;5005682;28;20053;-72
2021/03/16 08:22:19;;;;;;;14.02;6.47;;;;;;;3.76;74.23;96891.91;5001214;28;21549;-71
2021/03/16 08:25:06;;;;;;;15.23;5.47;;;;;;;3.96;72.75;96903.25;4991709;28;20501;-71
2021/03/16 08:27:52;;;;;;;10.27;4.95;;;;;;;5.35;67.11;96897.06;5005051;28;20056;-72
2021/03/16 08:30:38;;;;;;;9.15;4.32;;;;;;;5.82;66.30;96900.75;5004018;28;20057;-70
2021/03/16 08:33:23;;;;;;;6.75;4.10;;;;;;;5.60;66.12;96890.63;5005086;28;20053;-73
2021/03/16 08:36:10;;;;;;;13.18;6.82;;;;;;;5.58;66.97;96906.25;5007670;28;20049;-71
2021/03/16 08:38:54;;;;;;;6.80;3.60;;;;;;;6.80;61.54;96901.59;5004133;28;20144;-71
2021/03/16 08:41:39;;;;;;;13.63;7.05;;;;;;;6.58;61.89;96909.66;5007317;28;20060;-71
2021/03/16 08:44:26;;;;;;;9.77;4.95;;;;;;;7.40;61.36;96909.03;5006561;28;20088;-71
2021/03/16 08:47:22;;;;;;;9.27;3.38;;;;;;;6.89;61.40;96903.34;5003479;28;20524;-72
2021/03/16 08:50:08;;;;;;;8.70;3.97;;;;;;;6.14;63.03;96915.25;5007563;28;20149;-72
2021/03/16 08:52:53;;;;;;;7.55;3.83;;;;;;;8.48;59.01;96919.59;5011425;28;20251;-71
2021/03/16 08:55:37;;;;;;;8.05;3.70;;;;;;;7.22;63.10;96908.19;5007972;28;20134;-71
2021/03/16 08:58:26;;;;;;;7.53;3.60;;;;;;;8.25;57.90;96924.38;5009344;28;20060;-71
2021/03/16 09:01:10;;;;;;;9.32;3.63;;;;;;;7.18;61.21;96915.41;5006542;28;20061;-71
2021/03/16 09:03:58;;;;;;;10.68;4.05;;;;;;;6.30;63.37;96915.50;5008838;28;20053;-72
2021/03/16 09:06:43;;;;;;;9.88;4.07;;;;;;;5.97;63.57;96918.47;5010334;28;20053;-71
2021/03/16 09:09:31;;;;;;;9.20;3.60;;;;;;;5.55;63.06;96919.44;5010837;28;20052;-71
2021/03/16 09:12:29;;;;;;;8.20;3.47;;;;;;;4.97;64.72;96930.28;4996673;28;20585;-72
2021/03/16 09:15:25;;;;;;;14.43;5.13;;;;;;;4.83;67.62;96934.03;5007505;28;20457;-72
2021/03/16 09:18:12;;;;;;;11.02;4.97;;;;;;;4.25;71.18;96947.31;5011195;28;20057;-71
2021/03/16 09:21:04;;;;;;;10.85;4.95;;;;;;;3.79;72.27;96948.34;4994443;28;20075;-71
2021/03/16 09:23:50;;;;;;;10.70;5.72;;;;;;;3.52;74.90;96950.47;5008412;28;20147;-72
2021/03/16 09:26:35;;;;;;;11.85;5.82;;;;;;;3.52;73.82;96950.47;5011671;28;20113;-71
2021/03/16 09:29:21;;;;;;;8.73;4.55;;;;;;;4.61;70.93;96958.16;5008537;28;20056;-72
2021/03/16 09:32:09;;;;;;;11.27;5.40;;;;;;;4.58;70.74;96957.59;5008154;28;20057;-72
2021/03/16 09:34:54;;;;;;;9.68;4.70;;;;;;;4.66;70.87;96963.78;5010369;28;20122;-71
2021/03/16 09:37:49;;;;;;;7.38;3.13;;;;;;;5.17;67.32;96962.19;5006578;28;20053;-72
2021/03/16 09:40:42;;;;;;;6.10;2.25;;;;;;;6.31;60.97;96960.28;5010896;28;20148;-72
2021/03/16 09:43:34;;;;;;;6.70;2.15;;;;;;;8.32;56.37;96965.16;5008245;28;20240;-73
2021/03/16 09:46:06;;;;;;;6.15;1.70;;;;;;;7.73;56.78;96961.28;4997399;28;20072;-72
2021/03/16 09:48:35;;;;;;;7.82;1.73;;;;;;;8.00;54.53;96960.47;5005521;28;20049;-72
2021/03/16 09:51:30;;;;;;;9.57;2.05;;;;;;;7.42;59.57;96952.94;5012117;28;20034;-72
2021/03/16 09:53:58;;;;;;;4.90;2.33;;;;;;;7.17;60.23;96962.94;4991219;28;20046;-72
2021/03/16 09:56:28;;;;;;;9.55;4.45;;;;;;;8.15;58.45;96964.19;5010239;28;20042;-72
2021/03/16 09:59:00;;;;;;;7.80;2.70;;;;;;;11.42;47.76;96952.72;5011328;28;20108;-73
2021/03/16 10:01:28;;;;;;;5.45;2.83;;;;;;;10.99;49.74;96954.75;5008016;28;20125;-71
2021/03/16 10:04:02;;;;;;;6.60;2.53;;;;;;;7.88;59.88;96946.88;4993669;28;20060;-72
2021/03/16 10:06:40;;;;;;;10.23;3.22;;;;;;;6.93;61.58;96963.41;5012312;28;20662;-73
2021/03/16 10:09:14;;;;;;;10.00;3.38;;;;;;;6.02;66.15;96962.81;5007731;28;20050;-73
2021/03/16 10:11:40;;;;;;;8.88;3.78;;;;;;;4.93;67.17;96967.59;5009899;28;20047;-73
2021/03/16 10:14:06;;;;;;;10.70;5.13;;;;;;;4.89;68.49;96968.81;5011716;28;20034;-72
2021/03/16 10:16:33;;;;;;;8.90;4.13;;;;;;;4.43;68.58;96967.38;5011398;28;20041;-73
2021/03/16 10:18:59;;;;;;;12.65;6.05;;;;;;;4.62;69.16;96967.53;4979029;28;20117;-72
2021/03/16 10:21:33;;;;;;;17.05;8.50;;;;;;;4.88;68.28;96960.25;5008083;28;20398;-73
2021/03/16 10:24:02;;;;;;;12.25;5.13;;;;;;;4.64;67.50;96963.06;5008978;28;20109;-72
2021/03/16 10:26:28;;;;;;;16.45;8.10;;;;;;;5.40;64.58;96962.84;5011526;28;20048;-72
2021/03/16 10:28:54;;;;;;;12.90;4.13;;;;;;;6.09;63.10;96958.75;5009032;28;20050;-72
2021/03/16 10:31:22;;;;;;;10.60;3.97;;;;;;;6.66;61.70;96959.75;5012581;28;20046;-72
2021/03/16 10:33:51;;;;;;;7.47;3.20;;;;;;;6.09;62.28;96958.75;5010218;28;20473;-72
2021/03/16 10:36:20;;;;;;;11.00;4.00;;;;;;;7.37;59.20;96960.31;5013379;28;20050;-72
2021/03/16 10:38:48;;;;;;;16.80;9.75;;;;;;;6.69;59.13;96961.25;5011706;28;20137;-73
2021/03/16 10:41:20;;;;;;;6.93;3.88;;;;;;;7.86;56.04;96972.13;4992767;28;20857;-73
2021/03/16 10:43:47;;;;;;;9.88;4.82;;;;;;;7.93;60.04;96962.78;5008367;28;20056;-73
2021/03/16 10:46:14;;;;;;;;;;;;;;;7.38;57.37;96954.19;5009923;28;20092;-73
2021/03/16 10:48:40;;;;;;;9.73;3.22;;;;;;;7.57;59.67;96967.06;4976554;28;20004;-73
2021/03/16 10:51:06;;;;;;;7.03;4.25;;;;;;;6.90;55.95;96961.06;5012735;28;20048;-73
2021/03/16 10:53:33;;;;;;;11.35;4.32;;;;;;;6.67;60.34;96969.16;5013003;28;20129;-73
2021/03/16 10:56:03;;;;;;;13.90;2.90;;;;;;;6.86;57.98;96957.97;5008182;28;20046;-73
2021/03/16 10:58:29;;;;;;;9.00;2.42;;;;;;;6.29;57.92;96957.84;5006354;28;20105;-73
2021/03/16 11:00:55;;;;;;;6.88;3.25;;;;;;;6.26;57.83;96971.00;4989287;28;20042;-73
2021/03/16 11:03:28;;;;;;;13.30;4.07;;;;;;;6.26;59.70;96965.84;5003384;28;20030;-72
2021/03/16 11:05:54;;;;;;;8.63;3.38;;;;;;;6.36;59.58;96970.22;5007333;28;20128;-72
2021/03/16 11:08:21;;;;;;;13.07;4.30;;;;;;;6.89;59.20;96964.63;5004132;28;21710;-73
2021/03/16 11:10:48;;;;;;;9.23;3.25;;;;;;;6.78;57.92;96954.44;5008422;28;20054;-72
2021/03/16 11:13:14;;;;;;;9.90;3.63;;;;;;;6.70;58.57;96953.34;4988637;28;20041;-71
2021/03/16 11:15:40;;;;;;;17.27;6.15;;;;;;;7.09;58.59;96957.66;5008512;28;20092;-72
2021/03/16 11:18:06;;;;;;;13.02;5.80;;;;;;;6.97;57.95;96959.59;5007908;28;20050;-73
2021/03/16 11:20:32;;;;;;;19.02;8.05;;;;;;;8.70;53.68;96972.81;5009504;28;20045;-72
2021/03/16 11:22:58;;;;;;;9.07;4.35;;;;;;;9.23;54.16;96966.75;5007908;28;20062;-72
2021/03/16 11:25:24;;;;;;;8.43;3.60;;;;;;;9.36;51.47;96967.16;5008535;28;20037;-72
2021/03/16 11:27:52;;;;;;;10.13;4.50;;;;;;;10.17;49.62;96960.66;5005881;28;20053;-72
2021/03/16 11:30:18;;;;;;;11.55;3.30;;;;;;;12.37;46.08;96954.50;5009229;28;20046;-73
2021/03/16 11:32:44;;;;;;;8.95;2.85;;;;;;;10.16;49.17;96953.03;4995846;28;20046;-72
2021/03/16 11:35:30;;;;;;;9.38;3.80;;;;;;;11.91;47.06;96959.63;5005677;28;20169;-73
2021/03/16 11:38:15;;;;;;;7.65;2.90;;;;;;;10.94;48.35;96959.63;5005041;28;20073;-74
2021/03/16 11:41:00;;;;;;;10.45;4.75;;;;;;;6.59;61.90;96968.19;4994200;28;20080;-73
2021/03/16 11:43:45;;;;;;;8.55;4.22;;;;;;;5.69;62.68;96982.81;5007837;28;20053;-72
2021/03/16 11:46:30;;;;;;;10.00;3.30;;;;;;;6.03;61.14;96974.78;5009407;28;20069;-71
2021/03/16 11:49:16;;;;;;;6.22;2.67;;;;;;;7.20;60.56;96978.22;4993385;28;20064;-73
2021/03/16 11:52:01;;;;;;;15.90;7.85;;;;;;;9.10;53.96;96980.13;5009319;28;20061;-75
2021/03/16 11:54:45;;;;;;;7.32;2.70;;;;;;;8.25;57.47;96984.84;5004332;28;20121;-72
2021/03/16 11:57:29;;;;;;;10.80;2.53;;;;;;;6.99;59.65;96988.75;5005613;28;20055;-73
2021/03/16 12:00:14;;;;;;;7.45;2.70;;;;;;;5.97;64.17;96976.16;5009302;28;20162;-74
2021/03/16 12:03:00;;;;;;;8.00;2.00;;;;;;;6.47;59.06;96973.50;5006212;28;20103;-73
2021/03/16 12:05:46;;;;;;;9.18;2.33;;;;;;;8.17;55.14;96961.44;5010511;28;20045;-72
2021/03/16 12:08:31;;;;;;;6.22;2.65;;;;;;;11.84;47.00;96964.66;5006695;28;20060;-74
2021/03/16 12:11:15;;;;;;;6.28;2.20;;;;;;;11.33;46.64;96961.56;5008797;28;20061;-74
2021/03/16 12:14:01;;;;;;;9.52;2.35;;;;;;;10.69;45.96;96959.66;5005532;28;20227;-74
2021/03/16 12:16:45;;;;;;;11.40;2.80;;;;;;;12.10;42.19;96948.75;5011315;28;20295;-71
2021/03/16 12:19:31;;;;;;;10.18;2.53;;;;;;;8.09;53.98;96953.59;5004748;28;20048;-67
2021/03/16 12:22:16;;;;;;;10.77;3.03;;;;;;;7.20;56.88;96960.09;5004464;28;20060;-69
2021/03/16 12:25:04;;;;;;;7.75;2.53;;;;;;;5.83;58.44;96948.88;5007483;28;20520;-68
2021/03/16 12:27:50;;;;;;;7.28;2.20;;;;;;;6.15;58.10;96955.63;5007561;28;20165;-71
2021/03/16 12:30:36;;;;;;;7.32;1.90;;;;;;;5.69;60.67;96965.56;5009449;28;20102;-71
2021/03/16 12:33:21;;;;;;;9.70;2.45;;;;;;;5.61;57.34;96956.81;5010401;28;20060;-72
2021/03/16 12:36:06;;;;;;;8.15;2.03;;;;;;;6.61;55.21;96967.09;5012931;28;20049;-71
2021/03/16 12:38:51;;;;;;;7.55;2.50;;;;;;;6.40;58.02;96967.22;5007520;28;20062;-71